createdAt,value
2023-03-24T00:01:52.013Z,1.92
2023-03-24T00:04:22.607Z,3.33
2023-03-24T00:06:53.166Z,3.63
2023-03-24T00:09:24.726Z,0.50
2023-03-24T00:11:53.978Z,0.85
2023-03-24T00:14:27.601Z,1.02
2023-03-24T00:16:59.408Z,1.50
2023-03-24T00:19:28.742Z,0.73
2023-03-24T00:22:01.715Z,1.23
2023-03-24T00:24:32.073Z,0.90
2023-03-24T00:27:02.249Z,0.77
2023-03-24T00:29:31.770Z,1.30
2023-03-24T00:32:02.068Z,0.50
2023-03-24T00:34:31.281Z,1.90
2023-03-24T00:37:00.462Z,0.85
2023-03-24T00:39:30.420Z,0.98
2023-03-24T00:42:00.550Z,0.60
2023-03-24T00:44:33.790Z,1.23
2023-03-24T00:48:03.576Z,0.60
2023-03-24T00:50:37.480Z,0.68
2023-03-24T00:53:13.189Z,5.35
2023-03-24T00:56:17.496Z,0.40
2023-03-24T00:59:03.992Z,0.50
2023-03-24T01:01:38.122Z,0.68
2023-03-24T01:08:30.441Z,0.40
2023-03-24T01:11:11.455Z,1.13
2023-03-24T01:13:41.975Z,1.08
2023-03-24T01:16:14.423Z,0.50
2023-03-24T01:18:43.658Z,0.60
2023-03-24T01:21:15.272Z,1.58
2023-03-24T01:23:44.366Z,1.58
2023-03-24T01:26:17.017Z,0.93
2023-03-24T01:28:46.520Z,0.40
2023-03-24T01:31:16.122Z,0.50
2023-03-24T01:33:45.383Z,0.60
2023-03-24T01:36:39.982Z,0.50
2023-03-24T01:39:09.745Z,0.55
2023-03-24T01:41:42.509Z,0.50
2023-03-24T01:44:30.997Z,1.20
2023-03-24T01:47:12.911Z,0.50
2023-03-24T01:49:52.439Z,2.58
2023-03-24T01:52:34.132Z,0.63
2023-03-24T01:55:13.620Z,1.70
2023-03-24T01:57:53.562Z,2.05
2023-03-24T02:00:27.655Z,1.38
2023-03-24T02:03:42.794Z,2.55
2023-03-24T02:06:13.509Z,1.10
2023-03-24T02:08:59.104Z,4.50
2023-03-24T02:11:33.993Z,2.25
2023-03-24T02:14:08.189Z,3.40
2023-03-24T02:16:58.901Z,5.32
2023-03-24T02:19:39.680Z,6.15
2023-03-24T02:22:16.159Z,5.57
2023-03-24T02:25:12.726Z,7.90
2023-03-24T02:28:24.132Z,3.28
2023-03-24T02:31:12.193Z,4.80
2023-03-24T02:34:22.999Z,6.57
2023-03-24T02:37:03.696Z,4.50
2023-03-24T02:40:23.952Z,2.88
2023-03-24T02:43:19.471Z,5.28
2023-03-24T02:46:16.532Z,3.55
2023-03-24T02:48:57.495Z,5.75
2023-03-24T02:51:59.145Z,2.67
2023-03-24T02:54:37.650Z,4.47
2023-03-24T02:57:34.785Z,2.45
2023-03-24T03:00:50.197Z,2.38
2023-03-24T03:04:03.059Z,1.90
2023-03-24T03:06:43.464Z,4.25
2023-03-24T03:09:18.952Z,8.00
2023-03-24T03:11:56.213Z,11.27
2023-03-24T03:17:17.100Z,5.30
2023-03-24T03:19:57.147Z,4.85
2023-03-24T03:23:04.890Z,6.15
2023-03-24T03:25:48.486Z,5.32
2023-03-24T03:28:46.202Z,5.25
2023-03-24T03:31:50.657Z,5.38
2023-03-24T03:35:01.768Z,5.80
2023-03-24T03:37:37.806Z,8.30
2023-03-24T03:40:16.106Z,6.65
2023-03-24T03:42:49.958Z,5.88
2023-03-24T03:45:19.835Z,6.75
2023-03-24T03:47:49.581Z,10.23
2023-03-24T03:50:18.938Z,7.25
2023-03-24T03:52:47.975Z,5.75
2023-03-24T03:55:18.004Z,7.50
2023-03-24T03:57:48.360Z,6.40
2023-03-24T04:00:31.176Z,5.53
2023-03-24T04:03:35.303Z,3.05
2023-03-24T04:06:18.630Z,6.25
2023-03-24T04:13:53.226Z,7.78
2023-03-24T04:16:56.074Z,5.95
2023-03-24T04:20:06.664Z,5.72
2023-03-24T04:27:01.726Z,5.70
2023-03-24T04:29:47.592Z,7.88
2023-03-24T04:33:05.527Z,9.85
2023-03-24T04:36:20.998Z,6.22
2023-03-24T04:39:46.586Z,11.30
2023-03-24T04:42:46.613Z,5.30
2023-03-24T04:48:06.707Z,7.60
2023-03-24T04:50:46.757Z,5.72
2023-03-24T04:53:21.725Z,10.50
2023-03-24T04:55:51.166Z,7.43
2023-03-24T04:58:54.738Z,4.70
2023-03-24T05:01:33.959Z,7.47
2023-03-24T05:04:26.661Z,5.03
2023-03-24T05:06:57.427Z,3.65
2023-03-24T05:09:30.260Z,5.53
2023-03-24T05:12:01.887Z,4.78
2023-03-24T05:14:38.721Z,7.97
2023-03-24T05:17:09.315Z,7.03
2023-03-24T05:19:39.412Z,6.82
2023-03-24T05:22:09.443Z,7.57
2023-03-24T05:24:43.710Z,8.00
2023-03-24T05:27:13.796Z,10.90
2023-03-24T05:29:43.795Z,10.63
2023-03-24T05:32:35.788Z,12.13
2023-03-24T05:35:06.076Z,11.80
2023-03-24T05:37:36.946Z,7.50
2023-03-24T05:40:07.933Z,10.88
2023-03-24T05:42:53.104Z,7.38
2023-03-24T05:45:29.206Z,11.77
2023-03-24T05:48:10.371Z,6.90
2023-03-24T05:51:29.396Z,8.63
2023-03-24T05:54:08.497Z,14.02
2023-03-24T05:56:41.978Z,9.07
2023-03-24T05:59:12.845Z,8.88
2023-03-24T06:01:51.063Z,9.73
2023-03-24T06:04:32.499Z,10.27
2023-03-24T06:07:12.608Z,8.32
2023-03-24T06:09:48.196Z,5.35
2023-03-24T06:12:17.851Z,8.65
2023-03-24T06:14:54.525Z,12.20
2023-03-24T06:17:25.531Z,4.18
2023-03-24T06:20:05.287Z,6.47
2023-03-24T06:23:00.210Z,4.32
2023-03-24T06:25:37.322Z,8.35
2023-03-24T06:28:26.933Z,7.15
2023-03-24T06:30:59.964Z,9.85
2023-03-24T06:33:36.413Z,14.13
2023-03-24T06:36:08.337Z,8.60
2023-03-24T06:38:42.667Z,5.75
2023-03-24T06:41:14.488Z,9.23
2023-03-24T06:43:43.712Z,6.50
2023-03-24T06:46:13.302Z,21.20
2023-03-24T06:48:45.850Z,10.25
2023-03-24T06:51:14.786Z,13.25
2023-03-24T06:53:46.466Z,7.70
2023-03-24T06:56:18.485Z,8.85
2023-03-24T06:58:53.283Z,6.00
2023-03-24T07:01:28.832Z,8.60
2023-03-24T07:04:18.875Z,10.45
2023-03-24T07:07:27.905Z,13.10
2023-03-24T07:09:57.493Z,10.80
2023-03-24T07:12:26.945Z,9.18
2023-03-24T07:14:56.900Z,6.70
2023-03-24T07:17:25.891Z,8.93
2023-03-24T07:20:11.300Z,12.65
2023-03-24T07:22:43.634Z,10.00
2023-03-24T07:25:35.673Z,7.70
2023-03-24T07:28:14.807Z,5.28
2023-03-24T07:30:44.101Z,10.32
2023-03-24T07:33:14.033Z,12.30
2023-03-24T07:35:46.962Z,8.43
2023-03-24T07:38:16.486Z,9.50
2023-03-24T07:40:47.733Z,9.43
2023-03-24T07:43:17.436Z,8.35
2023-03-24T07:46:04.364Z,4.68
2023-03-24T07:48:35.177Z,7.38
2023-03-24T07:51:04.330Z,7.93
2023-03-24T07:53:49.444Z,8.38
2023-03-24T07:56:28.224Z,10.50
2023-03-24T07:58:59.795Z,9.88
2023-03-24T08:01:54.438Z,12.60
2023-03-24T08:04:37.073Z,5.85
2023-03-24T08:07:26.075Z,8.73
2023-03-24T08:09:55.476Z,7.10
2023-03-24T08:12:24.474Z,5.50
2023-03-24T08:14:54.298Z,7.10
2023-03-24T08:17:23.379Z,7.90
2023-03-24T08:19:59.488Z,7.55
2023-03-24T08:22:29.956Z,4.32
2023-03-24T08:24:59.092Z,7.13
2023-03-24T08:27:30.168Z,5.88
2023-03-24T08:29:59.313Z,7.45
2023-03-24T08:32:28.232Z,4.05
2023-03-24T08:34:59.152Z,5.78
2023-03-24T08:37:28.155Z,6.95
2023-03-24T08:39:59.485Z,5.95
2023-03-24T08:42:28.419Z,5.32
2023-03-24T08:44:57.609Z,8.70
2023-03-24T08:47:33.455Z,3.60
2023-03-24T08:50:02.439Z,2.65
2023-03-24T08:52:31.574Z,7.85
2023-03-24T08:55:00.473Z,5.13
2023-03-24T08:57:29.708Z,4.10
2023-03-24T08:59:58.815Z,3.60
2023-03-24T09:02:28.537Z,5.40
2023-03-24T09:05:01.064Z,3.22
2023-03-24T09:07:33.064Z,7.75
2023-03-24T09:10:02.462Z,3.28
2023-03-24T09:12:31.460Z,6.35
2023-03-24T09:15:03.059Z,4.80
2023-03-24T09:17:36.023Z,5.07
2023-03-24T09:20:12.452Z,3.67
2023-03-24T09:22:44.057Z,5.93
2023-03-24T09:25:17.618Z,7.72
2023-03-24T09:27:47.553Z,4.35
2023-03-24T09:30:19.358Z,5.22
2023-03-24T09:32:56.322Z,3.47
2023-03-24T09:35:28.016Z,5.53
2023-03-24T09:37:57.376Z,3.03
2023-03-24T09:40:32.100Z,2.33
2023-03-24T09:43:10.408Z,5.82
2023-03-24T09:46:05.223Z,4.20
2023-03-24T09:49:00.544Z,4.32
2023-03-24T09:51:45.607Z,2.88
2023-03-24T09:54:21.122Z,3.03
2023-03-24T09:56:52.044Z,3.83
2023-03-24T09:59:35.756Z,3.72
2023-03-24T10:02:13.577Z,3.30
2023-03-24T10:04:43.440Z,3.15
2023-03-24T10:07:35.867Z,4.00
2023-03-24T10:10:05.306Z,3.55
2023-03-24T10:12:49.385Z,1.80
2023-03-24T10:15:37.281Z,3.83
2023-03-24T10:18:19.494Z,4.20
2023-03-24T10:21:08.756Z,3.50
2023-03-24T10:23:52.558Z,10.25
2023-03-24T10:26:32.530Z,5.03
2023-03-24T10:29:18.586Z,4.35
2023-03-24T10:32:00.585Z,5.72
2023-03-24T10:34:33.831Z,2.65
2023-03-24T10:37:06.116Z,3.00
2023-03-24T10:39:44.134Z,2.05
2023-03-24T10:42:22.613Z,5.72
2023-03-24T10:44:55.913Z,4.88
2023-03-24T10:47:32.847Z,1.98
2023-03-24T10:50:12.764Z,6.15
2023-03-24T10:52:49.526Z,4.32
2023-03-24T10:55:21.419Z,4.82
2023-03-24T10:57:57.717Z,3.90
2023-03-24T11:00:33.438Z,5.05
2023-03-24T11:03:09.228Z,2.97
2023-03-24T11:05:40.918Z,2.75
2023-03-24T11:08:19.313Z,3.75
2023-03-24T11:10:48.277Z,2.10
2023-03-24T11:13:23.950Z,2.80
2023-03-24T11:16:14.841Z,2.75
2023-03-24T11:18:58.192Z,3.03
2023-03-24T11:21:30.984Z,5.57
2023-03-24T11:24:08.349Z,0.90
2023-03-24T11:26:40.349Z,2.00
2023-03-24T11:29:29.903Z,3.28
2023-03-24T11:32:17.496Z,2.53
2023-03-24T11:34:56.115Z,2.08
2023-03-24T11:37:38.306Z,2.20
2023-03-24T11:40:13.771Z,1.77
2023-03-24T11:42:54.300Z,3.63
2023-03-24T11:45:40.161Z,3.35
2023-03-24T11:48:32.412Z,2.78
2023-03-24T11:51:04.499Z,1.55
2023-03-24T11:53:49.177Z,1.60
2023-03-24T11:56:47.338Z,1.35
2023-03-24T11:59:35.712Z,0.90
2023-03-24T12:02:24.023Z,1.45
2023-03-24T12:05:14.338Z,1.98
2023-03-24T12:07:57.496Z,2.65
2023-03-24T12:10:51.533Z,4.10
2023-03-24T12:13:32.674Z,1.35
2023-03-24T12:16:14.590Z,3.80
2023-03-24T12:18:54.637Z,0.98
2023-03-24T12:21:38.059Z,6.32
2023-03-24T12:24:39.336Z,4.20
2023-03-24T12:27:25.247Z,1.08
2023-03-24T12:30:36.347Z,2.80
2023-03-24T12:33:26.072Z,1.85
2023-03-24T12:36:33.395Z,1.17
2023-03-24T12:39:16.333Z,2.47
2023-03-24T12:42:14.778Z,1.15
2023-03-24T12:45:16.377Z,2.08
2023-03-24T12:48:13.310Z,1.15
2023-03-24T12:50:57.265Z,1.80
2023-03-24T12:53:42.440Z,0.60
2023-03-24T12:56:24.272Z,3.03
2023-03-24T12:59:24.724Z,0.65
2023-03-24T13:02:05.275Z,2.30
2023-03-24T13:04:36.524Z,1.42
2023-03-24T13:07:15.709Z,1.65
2023-03-24T13:10:02.996Z,1.25
2023-03-24T13:13:00.858Z,1.02
2023-03-24T13:15:47.853Z,2.25
2023-03-24T13:18:28.644Z,1.15
2023-03-24T13:21:12.314Z,1.63
2023-03-24T13:23:57.460Z,1.23
2023-03-24T13:26:35.952Z,1.00
2023-03-24T13:29:04.940Z,2.47
2023-03-24T13:32:11.224Z,0.80
2023-03-24T13:35:10.950Z,3.42
2023-03-24T13:37:49.507Z,2.35
2023-03-24T13:40:41.324Z,3.40
2023-03-24T13:43:26.221Z,2.40
2023-03-24T13:46:08.934Z,1.58
2023-03-24T13:48:46.162Z,1.77
2023-03-24T13:51:21.945Z,3.33
2023-03-24T13:54:02.684Z,0.77
2023-03-24T13:56:43.666Z,1.63
2023-03-24T13:59:40.415Z,2.90
2023-03-24T14:02:24.345Z,0.98
2023-03-24T14:05:01.713Z,1.77
2023-03-24T14:07:45.351Z,1.40
2023-03-24T14:10:21.763Z,1.15
2023-03-24T14:12:59.538Z,3.05
2023-03-24T14:15:28.713Z,2.55
2023-03-24T14:18:18.938Z,3.15
2023-03-24T14:21:09.914Z,1.98
2023-03-24T14:23:49.563Z,1.85
2023-03-24T14:26:21.630Z,2.88
2023-03-24T14:28:54.020Z,0.93
2023-03-24T14:31:41.116Z,1.08
2023-03-24T14:34:21.232Z,1.67
2023-03-24T14:37:08.488Z,2.33
2023-03-24T14:42:33.897Z,1.85
2023-03-24T14:45:27.259Z,1.27
2023-03-24T14:48:03.634Z,1.00
2023-03-24T14:50:33.757Z,1.90
2023-03-24T14:53:07.330Z,1.10
2023-03-24T14:55:39.429Z,1.05
2023-03-24T14:58:23.248Z,1.50
2023-03-24T15:01:07.044Z,4.25
2023-03-24T15:03:51.048Z,1.60
2023-03-24T15:06:25.095Z,1.15
2023-03-24T15:09:08.541Z,1.52
2023-03-24T15:11:41.544Z,1.48
2023-03-24T15:14:26.520Z,1.88
2023-03-24T15:17:10.101Z,1.58
2023-03-24T15:19:43.354Z,2.10
2023-03-24T15:22:15.011Z,2.42
2023-03-24T15:24:45.659Z,1.52
2023-03-24T15:27:25.605Z,1.42
2023-03-24T15:29:58.437Z,1.55
2023-03-24T15:32:32.683Z,2.47
2023-03-24T15:35:06.688Z,3.05
2023-03-24T15:37:50.039Z,1.10
2023-03-24T15:40:28.565Z,1.95
2023-03-24T15:43:00.606Z,1.55
2023-03-24T15:45:32.408Z,3.28
2023-03-24T15:48:14.048Z,3.35
2023-03-24T15:51:06.462Z,6.10
2023-03-24T15:53:40.217Z,3.22
2023-03-24T15:56:21.800Z,1.95
2023-03-24T15:59:08.920Z,5.13
2023-03-24T16:01:40.282Z,1.45
2023-03-24T16:04:17.372Z,3.53
2023-03-24T16:06:54.901Z,3.80
2023-03-24T16:09:28.151Z,2.90
2023-03-24T16:11:57.654Z,1.13
2023-03-24T16:14:29.458Z,1.70
2023-03-24T16:17:04.595Z,4.95
2023-03-24T16:19:36.822Z,2.85
2023-03-24T16:22:12.639Z,6.22
2023-03-24T16:24:41.811Z,3.63
2023-03-24T16:27:20.247Z,5.35
2023-03-24T16:29:50.428Z,4.03
2023-03-24T16:32:24.303Z,6.95
2023-03-24T16:34:56.617Z,4.32
2023-03-24T16:37:25.699Z,4.57
2023-03-24T16:39:55.050Z,3.95
2023-03-24T16:42:27.763Z,2.92
2023-03-24T16:45:00.197Z,7.00
2023-03-24T16:47:29.272Z,4.93
2023-03-24T16:49:58.203Z,3.72
2023-03-24T16:52:27.115Z,4.65
2023-03-24T16:54:56.026Z,5.05
2023-03-24T16:57:28.355Z,9.10
2023-03-24T16:59:57.341Z,6.68
2023-03-24T17:02:26.621Z,4.30
2023-03-24T17:04:55.788Z,4.57
2023-03-24T17:07:24.842Z,4.45
2023-03-24T17:09:53.926Z,5.28
2023-03-24T17:12:23.237Z,3.42
2023-03-24T17:14:52.113Z,4.90
2023-03-24T17:17:21.085Z,4.97
2023-03-24T17:19:50.048Z,9.00
2023-03-24T17:22:22.964Z,5.75
2023-03-24T17:25:01.184Z,7.43
2023-03-24T17:27:30.284Z,3.20
2023-03-24T17:29:59.383Z,7.35
2023-03-24T17:32:34.359Z,4.63
2023-03-24T17:35:04.638Z,6.38
2023-03-24T17:37:34.880Z,4.88
2023-03-24T17:40:11.228Z,8.55
2023-03-24T17:42:42.906Z,4.75
2023-03-24T17:45:16.183Z,4.03
2023-03-24T17:47:46.405Z,5.10
2023-03-24T17:50:15.828Z,6.53
2023-03-24T17:52:47.451Z,9.68
2023-03-24T17:55:18.214Z,6.45
2023-03-24T18:01:07.716Z,5.43
2023-03-24T18:03:47.384Z,5.75
2023-03-24T18:06:26.752Z,3.22
2023-03-24T18:09:02.023Z,4.05
2023-03-24T18:11:31.883Z,7.10
2023-03-24T18:14:01.438Z,5.85
2023-03-24T18:16:36.156Z,6.82
2023-03-24T18:19:20.215Z,9.10
2023-03-24T18:24:22.375Z,5.63
2023-03-24T18:27:02.144Z,6.15
2023-03-24T18:29:36.638Z,4.05
2023-03-24T18:32:13.982Z,5.25
2023-03-24T18:34:48.552Z,5.65
2023-03-24T18:37:18.069Z,8.77
2023-03-24T18:39:55.814Z,3.88
2023-03-24T18:42:24.820Z,7.53
2023-03-24T18:44:53.710Z,4.80
2023-03-24T18:47:23.428Z,5.60
2023-03-24T18:49:52.347Z,7.22
2023-03-24T18:52:21.439Z,3.47
2023-03-24T18:54:50.689Z,2.95
2023-03-24T18:57:21.018Z,6.57
2023-03-24T18:59:50.625Z,7.03
2023-03-24T19:02:22.301Z,10.13
2023-03-24T19:04:51.389Z,5.22
2023-03-24T19:07:25.370Z,4.30
2023-03-24T19:09:55.552Z,11.23
2023-03-24T19:12:24.634Z,2.22
2023-03-24T19:14:54.931Z,7.43
2023-03-24T19:17:24.651Z,6.72
2023-03-24T19:19:58.846Z,7.47
2023-03-24T19:22:28.077Z,4.32
2023-03-24T19:24:57.114Z,8.80
2023-03-24T19:27:27.971Z,7.20
2023-03-24T19:29:57.766Z,5.82
2023-03-24T19:32:26.935Z,4.97
2023-03-24T19:34:56.105Z,3.25
2023-03-24T19:37:45.610Z,5.97
2023-03-24T19:40:16.492Z,9.60
2023-03-24T19:42:55.198Z,7.35
2023-03-24T19:45:28.265Z,10.23
2023-03-24T19:47:57.427Z,5.22
2023-03-24T19:50:26.867Z,2.13
2023-03-24T19:52:56.089Z,11.40
2023-03-24T19:55:25.737Z,10.35
2023-03-24T19:57:58.204Z,4.90
2023-03-24T20:00:27.336Z,7.88
2023-03-24T20:03:08.203Z,8.25
2023-03-24T20:05:37.954Z,8.50
2023-03-24T20:08:07.091Z,2.90
2023-03-24T20:10:37.953Z,5.65
2023-03-24T20:13:08.167Z,5.43
2023-03-24T20:15:38.460Z,4.97
2023-03-24T20:18:08.214Z,7.43
2023-03-24T20:20:37.322Z,6.15
2023-03-24T20:23:07.384Z,9.75
2023-03-24T20:25:36.501Z,6.15
2023-03-24T20:28:05.775Z,11.80
2023-03-24T20:30:34.849Z,0.65
2023-03-24T20:33:04.230Z,6.40
2023-03-24T20:38:02.597Z,3.47
2023-03-24T20:40:31.707Z,1.65
2023-03-24T20:43:00.880Z,1.67
2023-03-24T20:45:30.142Z,4.55
2023-03-24T20:47:59.151Z,5.30
2023-03-24T20:50:28.446Z,5.65
2023-03-24T20:52:57.401Z,1.05
2023-03-24T20:55:26.840Z,2.22
2023-03-24T20:57:56.703Z,3.75
2023-03-24T21:00:25.854Z,1.00
2023-03-24T21:02:54.807Z,2.85
2023-03-24T21:05:23.834Z,1.23
2023-03-24T21:07:53.105Z,3.95
2023-03-24T21:10:22.221Z,2.67
2023-03-24T21:12:53.574Z,3.40
2023-03-24T21:15:27.128Z,4.38
2023-03-24T21:17:56.966Z,2.03
2023-03-24T21:20:31.529Z,3.53
2023-03-24T21:23:05.123Z,7.65
2023-03-24T21:25:34.601Z,2.58
2023-03-24T21:28:04.345Z,2.85
2023-03-24T21:30:33.342Z,9.73
2023-03-24T21:33:02.338Z,3.25
2023-03-24T21:35:32.150Z,2.20
2023-03-24T21:38:02.175Z,2.72
2023-03-24T21:40:31.447Z,7.40
2023-03-24T21:43:05.561Z,5.18
2023-03-24T21:45:36.729Z,4.28
2023-03-24T21:48:07.757Z,2.78
2023-03-24T21:50:39.646Z,2.38
2023-03-24T21:53:15.576Z,6.50
2023-03-24T21:55:56.415Z,1.95
2023-03-24T21:58:25.434Z,2.17
2023-03-24T22:00:56.484Z,4.15
2023-03-24T22:03:26.875Z,3.00
2023-03-24T22:05:59.925Z,3.10
2023-03-24T22:08:34.379Z,2.40
2023-03-24T22:11:07.793Z,0.88
2023-03-24T22:13:46.810Z,1.27
2023-03-24T22:16:17.063Z,2.60
2023-03-24T22:18:48.205Z,4.13
2023-03-24T22:21:18.108Z,2.53
2023-03-24T22:23:50.592Z,1.75
2023-03-24T22:26:19.831Z,0.90
2023-03-24T22:28:49.939Z,2.58
2023-03-24T22:31:24.339Z,3.30
2023-03-24T22:33:57.085Z,2.10
2023-03-24T22:36:26.266Z,1.27
2023-03-24T22:38:55.183Z,2.63
2023-03-24T22:41:24.242Z,1.73
2023-03-24T22:43:53.515Z,3.25
2023-03-24T22:46:25.004Z,2.17
2023-03-24T22:48:54.074Z,3.53
2023-03-24T22:51:23.160Z,4.28
2023-03-24T22:53:52.475Z,2.15
2023-03-24T22:56:23.397Z,6.50
2023-03-24T22:59:20.490Z,1.58
2023-03-24T23:02:33.999Z,0.63
2023-03-24T23:05:07.466Z,1.65
2023-03-24T23:07:39.299Z,1.42
2023-03-24T23:10:09.234Z,1.55
2023-03-24T23:12:38.965Z,1.80
2023-03-24T23:15:09.304Z,0.60
2023-03-24T23:17:38.845Z,2.40
2023-03-24T23:20:09.136Z,1.65
2023-03-24T23:22:39.761Z,2.85
2023-03-24T23:25:14.315Z,1.48
2023-03-24T23:27:43.564Z,3.67
2023-03-24T23:30:23.338Z,1.65
2023-03-24T23:33:08.637Z,1.20
2023-03-24T23:35:38.186Z,3.50
2023-03-24T23:38:07.499Z,0.55
2023-03-24T23:40:36.579Z,0.73
2023-03-24T23:43:05.546Z,1.20
2023-03-24T23:45:34.650Z,0.50
2023-03-24T23:48:04.427Z,0.50
2023-03-24T23:50:33.941Z,1.33
2023-03-24T23:53:02.909Z,0.57
2023-03-24T23:59:24.086Z,1.02
